Time;durP1;ratioP1;P1;durP2;ratioP2;P2;SDS_P1;SDS_P2;PMS_P1;PMS_P2;Temp;Humidity;BMP_temperature;BMP_pressure;BME280_temperature;BME280_humidity;BME280_pressure;Samples;Min_cycle;Max_cycle;Signal;HPM_P1;HPM_P2
2022/12/25 00:00:11;;;;;;;258.65;44.88;;;6.40;99.90;;;;;;5012864;28;20054;-83
2022/12/25 00:02:38;;;;;;;303.75;46.88;;;6.40;99.90;;;;;;5012594;28;20536;-83
2022/12/25 00:05:05;;;;;;;224.45;43.55;;;6.40;99.90;;;;;;5012897;28;20064;-83
2022/12/25 00:07:31;;;;;;;256.98;42.90;;;6.30;99.90;;;;;;5012704;28;20057;-83
2022/12/25 00:09:57;;;;;;;251.18;40.00;;;6.30;99.90;;;;;;5012985;28;20053;-83
2022/12/25 00:12:22;;;;;;;270.52;45.00;;;6.30;99.90;;;;;;5012756;28;20124;-83
2022/12/25 00:14:48;;;;;;;246.13;42.88;;;6.20;99.90;;;;;;5012932;28;20038;-83
2022/12/25 00:17:14;;;;;;;247.68;42.83;;;6.20;99.90;;;;;;5012520;28;20041;-83
2022/12/25 00:19:39;;;;;;;197.05;39.80;;;6.10;99.90;;;;;;5012775;28;20045;-83
2022/12/25 00:22:05;;;;;;;169.68;35.58;;;6.10;99.90;;;;;;5012515;28;20432;-83
2022/12/25 00:24:30;;;;;;;215.77;40.38;;;6.10;99.90;;;;;;5012623;28;20053;-83
2022/12/25 00:26:56;;;;;;;228.38;41.80;;;6.10;99.90;;;;;;5013529;28;20046;-83
2022/12/25 00:29:22;;;;;;;205.60;40.33;;;6.00;99.90;;;;;;5016887;28;20431;-83
2022/12/25 00:31:47;;;;;;;178.80;41.75;;;6.00;99.90;;;;;;5016539;28;20133;-83
2022/12/25 00:34:13;;;;;;;165.60;40.42;;;6.00;99.90;;;;;;5016321;28;20054;-83
2022/12/25 00:36:39;;;;;;;163.82;41.30;;;6.00;99.90;;;;;;5016490;28;20095;-83
2022/12/25 00:39:06;;;;;;;171.05;40.78;;;6.00;99.90;;;;;;5017725;28;20049;-83
2022/12/25 00:44:16;;;;;;;149.40;38.55;;;6.00;99.90;;;;;;5016250;28;20046;-83
2022/12/25 00:46:42;;;;;;;160.05;38.72;;;6.00;99.90;;;;;;5016288;28;20107;-83
2022/12/25 00:49:09;;;;;;;160.50;39.05;;;6.00;99.90;;;;;;5016154;28;20046;-83
2022/12/25 00:51:35;;;;;;;166.30;40.78;;;6.00;99.90;;;;;;5016512;28;20064;-83
2022/12/25 00:54:00;;;;;;;165.95;37.08;;;5.90;99.90;;;;;;5016209;28;20421;-83
2022/12/25 00:56:26;;;;;;;144.27;36.28;;;5.90;99.90;;;;;;5016387;28;20054;-83
2022/12/25 00:58:53;;;;;;;169.07;37.67;;;5.80;99.90;;;;;;5016261;28;20379;-83
2022/12/25 01:01:18;;;;;;;149.65;37.28;;;5.80;99.90;;;;;;5017197;28;20385;-83
2022/12/25 01:03:44;;;;;;;152.07;35.70;;;5.80;99.90;;;;;;5015908;28;20050;-83
2022/12/25 01:06:11;;;;;;;164.48;39.17;;;5.80;99.90;;;;;;5015999;28;20048;-83
2022/12/25 01:10:20;;;;;;;142.38;38.53;;;5.70;99.90;;;;;;5015956;28;20081;-83
2022/12/25 01:11:24;;;;;;;167.35;40.17;;;5.70;99.90;;;;;;5016576;28;20398;-83
2022/12/25 01:13:50;;;;;;;140.77;36.55;;;5.70;99.90;;;;;;5015792;28;20034;-83
2022/12/25 01:16:15;;;;;;;147.40;35.05;;;5.50;99.90;;;;;;5015645;28;20049;-83
2022/12/25 01:18:42;;;;;;;138.30;34.38;;;5.50;99.90;;;;;;5015719;28;20045;-83
2022/12/25 01:21:09;;;;;;;156.60;38.08;;;5.50;99.90;;;;;;5016046;28;20108;-83
2022/12/25 01:23:37;;;;;;;138.40;31.25;;;5.50;99.90;;;;;;5015686;28;20504;-83
2022/12/25 01:26:07;;;;;;;126.35;32.20;;;5.50;99.90;;;;;;5015743;28;20062;-83
2022/12/25 01:28:34;;;;;;;134.93;33.92;;;5.50;99.90;;;;;;5015494;28;20076;-83
2022/12/25 01:31:00;;;;;;;147.55;35.42;;;5.50;99.90;;;;;;5015716;28;20557;-83
2022/12/25 01:33:27;;;;;;;124.10;33.53;;;5.50;99.90;;;;;;5015142;28;20164;-83
2022/12/25 01:35:53;;;;;;;133.55;32.47;;;5.60;99.90;;;;;;5015423;28;20410;-83
2022/12/25 01:38:19;;;;;;;131.05;32.60;;;5.60;99.90;;;;;;5015165;28;20118;-83
2022/12/25 01:40:44;;;;;;;133.35;31.67;;;5.50;99.90;;;;;;5015210;28;20041;-83
2022/12/25 01:43:24;;;;;;;138.48;35.15;;;5.50;99.90;;;;;;5015178;28;20188;-83
2022/12/25 01:45:51;;;;;;;144.52;34.92;;;5.50;99.90;;;;;;5015429;28;20490;-83
2022/12/25 01:48:24;;;;;;;128.50;33.92;;;5.60;99.90;;;;;;5014995;28;20061;-83
2022/12/25 01:50:54;;;;;;;;;;;5.50;99.90;;;;;;5015660;28;20041;-83
2022/12/25 01:53:20;;;;;;;126.30;34.97;;;5.70;99.90;;;;;;5015236;28;19917;-83
2022/12/25 01:55:49;;;;;;;154.88;38.60;;;5.60;99.90;;;;;;5015049;28;20050;-83
2022/12/25 01:58:19;;;;;;;139.07;34.70;;;5.80;99.90;;;;;;5014940;28;20038;-83
2022/12/25 02:00:45;;;;;;;181.32;38.88;;;5.80;99.90;;;;;;5014946;28;20053;-83
2022/12/25 02:03:10;;;;;;;169.07;38.13;;;5.90;99.90;;;;;;5015010;28;20045;-83
2022/12/25 02:05:37;;;;;;;188.30;37.90;;;5.90;99.90;;;;;;5014789;28;20472;-83
2022/12/25 02:08:11;;;;;;;181.63;38.83;;;5.90;99.90;;;;;;5014789;28;20050;-83
2022/12/25 02:10:42;;;;;;;204.10;39.85;;;6.00;99.90;;;;;;5014691;28;20401;-83
2022/12/25 02:13:08;;;;;;;219.88;41.80;;;6.00;99.90;;;;;;5014808;28;20104;-83
2022/12/25 02:16:04;;;;;;;234.93;45.58;;;6.00;99.90;;;;;;5014735;28;20053;-83
2022/12/25 02:19:28;;;;;;;268.35;42.20;;;6.00;99.90;;;;;;5014836;28;20081;-83
2022/12/25 02:22:31;;;;;;;210.55;40.13;;;6.10;99.90;;;;;;4933733;28;20564;-83
2022/12/25 02:25:18;;;;;;;225.70;40.17;;;6.10;99.90;;;;;;5014512;28;20497;-83
2022/12/25 02:28:07;;;;;;;218.45;39.10;;;6.10;99.90;;;;;;5014497;28;20501;-83
2022/12/25 02:30:48;;;;;;;185.77;40.83;;;6.10;99.90;;;;;;4995806;28;20115;-83
2022/12/25 02:36:20;;;;;;;219.48;41.47;;;6.10;99.90;;;;;;5014639;28;20042;-83
2022/12/25 02:41:40;;;;;;;218.93;40.15;;;6.20;99.90;;;;;;5014212;28;20065;-83
2022/12/25 03:06:58;;;;;;;184.02;42.00;;;6.40;99.90;;;;;;5013729;28;20137;-83
2022/12/25 03:12:28;;;;;;;205.13;45.45;;;6.50;99.90;;;;;;5013576;28;20061;-83
2022/12/25 03:17:38;;;;;;;195.00;42.00;;;6.60;99.90;;;;;;5013580;28;20140;-83
2022/12/25 03:28:18;;;;;;;177.02;42.85;;;6.70;99.90;;;;;;5013369;28;20101;-83
2022/12/25 03:31:12;;;;;;;197.63;44.47;;;6.70;99.90;;;;;;5013167;28;20410;-83
2022/12/25 04:37:50;;;;;;;264.10;50.90;;;7.50;99.90;;;;;;5012397;28;20065;-84
2022/12/25 04:40:16;;;;;;;219.65;48.08;;;7.60;99.90;;;;;;5012640;28;20042;-84
2022/12/25 04:42:42;;;;;;;265.88;50.47;;;7.60;99.90;;;;;;5012312;28;20046;-84
2022/12/25 04:45:08;;;;;;;230.45;50.80;;;7.60;99.90;;;;;;5013476;28;20052;-84
2022/12/25 04:47:34;;;;;;;240.27;45.35;;;7.60;99.90;;;;;;5012462;28;20042;-83
2022/12/25 04:49:59;;;;;;;240.52;48.28;;;7.70;99.90;;;;;;5013447;28;20057;-83
2022/12/25 04:52:25;;;;;;;243.73;49.72;;;7.80;99.90;;;;;;5012478;28;20068;-83
2022/12/25 04:54:50;;;;;;;269.48;47.75;;;7.70;99.90;;;;;;5012263;28;20470;-83
2022/12/25 04:57:16;;;;;;;239.75;47.63;;;7.70;99.90;;;;;;5012262;28;20046;-84
2022/12/25 04:59:42;;;;;;;239.82;47.42;;;7.80;99.90;;;;;;5012622;28;20088;-84
2022/12/25 05:02:07;;;;;;;192.27;42.80;;;7.80;99.90;;;;;;5012403;28;20476;-84
2022/12/25 05:04:33;;;;;;;238.73;47.78;;;7.80;99.90;;;;;;5013584;28;20046;-84
2022/12/25 05:06:59;;;;;;;231.30;44.13;;;7.90;99.90;;;;;;5012348;28;20363;-84
2022/12/25 05:09:25;;;;;;;216.25;44.78;;;7.90;99.90;;;;;;5012387;28;20506;-84
2022/12/25 05:11:51;;;;;;;231.65;46.63;;;7.80;99.90;;;;;;5012120;28;20394;-84
2022/12/25 05:14:16;;;;;;;235.85;44.75;;;7.90;99.90;;;;;;5013381;28;20579;-84
2022/12/25 05:16:42;;;;;;;240.50;47.35;;;7.90;99.90;;;;;;5015790;28;20046;-84
2022/12/25 05:19:08;;;;;;;237.30;45.13;;;7.90;99.90;;;;;;5015636;28;20052;-84
2022/12/25 05:21:34;;;;;;;241.60;46.42;;;7.90;99.90;;;;;;5015893;28;20053;-84
2022/12/25 05:24:00;;;;;;;226.40;45.47;;;7.90;99.90;;;;;;5015573;28;20382;-84
2022/12/25 05:26:26;;;;;;;240.73;49.13;;;8.00;99.90;;;;;;5015617;28;20061;-84
2022/12/25 05:28:53;;;;;;;233.45;43.75;;;7.90;99.90;;;;;;5015606;28;20049;-84
2022/12/25 05:31:19;;;;;;;244.60;47.75;;;7.90;99.90;;;;;;5015635;28;20046;-83
2022/12/25 05:33:47;;;;;;;239.30;47.30;;;7.90;99.90;;;;;;5015461;28;20080;-84
2022/12/25 05:36:14;;;;;;;222.95;46.90;;;7.90;99.90;;;;;;5015667;28;20092;-84
2022/12/25 05:38:40;;;;;;;234.05;47.58;;;8.00;99.90;;;;;;5016751;28;20049;-84
2022/12/25 05:41:06;;;;;;;250.75;48.65;;;8.00;99.90;;;;;;5015615;28;20137;-84
2022/12/25 05:43:31;;;;;;;254.20;46.13;;;7.90;99.90;;;;;;5015375;28;20056;-84
2022/12/25 05:45:57;;;;;;;243.57;47.58;;;7.90;99.90;;;;;;5015215;28;20045;-84
2022/12/25 05:48:23;;;;;;;241.27;48.15;;;8.00;99.90;;;;;;5015085;28;20046;-84
2022/12/25 05:50:48;;;;;;;226.90;48.47;;;7.90;99.90;;;;;;5015201;28;20045;-83
2022/12/25 05:53:15;;;;;;;227.63;47.88;;;8.00;99.90;;;;;;5015223;28;20061;-83
2022/12/25 05:55:42;;;;;;;219.38;46.65;;;7.90;99.90;;;;;;5015121;28;20049;-84
2022/12/25 05:58:09;;;;;;;228.93;48.22;;;8.00;99.90;;;;;;5015129;28;20100;-83
2022/12/25 06:00:36;;;;;;;237.75;45.17;;;8.00;99.90;;;;;;5015277;28;20110;-83
2022/12/25 06:03:02;;;;;;;226.10;46.83;;;7.90;99.90;;;;;;5014948;28;20100;-83
2022/12/25 06:05:28;;;;;;;225.02;48.38;;;7.90;99.90;;;;;;5014823;28;20061;-83
2022/12/25 06:07:54;;;;;;;229.63;48.90;;;7.80;99.90;;;;;;5014863;28;20050;-83
2022/12/25 06:10:20;;;;;;;217.57;47.88;;;7.90;99.90;;;;;;5015108;28;20044;-83
2022/12/25 06:12:46;;;;;;;219.52;46.30;;;7.90;99.90;;;;;;5014898;28;20049;-84
2022/12/25 06:15:12;;;;;;;237.57;48.22;;;8.00;99.90;;;;;;5016306;28;20054;-84
2022/12/25 06:17:37;;;;;;;231.73;47.22;;;8.00;99.90;;;;;;5016007;28;20038;-82
2022/12/25 06:20:03;;;;;;;238.18;50.20;;;8.00;99.90;;;;;;5014812;28;20398;-82
2022/12/25 06:22:30;;;;;;;225.07;47.60;;;7.90;99.90;;;;;;5014730;28;20390;-83
2022/12/25 06:24:56;;;;;;;211.25;47.08;;;8.00;99.90;;;;;;5014271;28;20481;-82
2022/12/25 06:27:22;;;;;;;239.25;49.30;;;8.00;99.90;;;;;;5014813;28;20046;-82
2022/12/25 06:29:48;;;;;;;252.77;52.47;;;8.00;99.90;;;;;;5014191;28;20378;-82
2022/12/25 06:32:13;;;;;;;227.07;48.58;;;8.00;99.90;;;;;;5014269;28;20057;-82
2022/12/25 06:34:39;;;;;;;235.20;45.70;;;8.00;99.90;;;;;;5014067;28;20129;-82
2022/12/25 06:37:05;;;;;;;229.52;47.03;;;7.90;99.90;;;;;;5014385;28;20038;-81
2022/12/25 06:39:30;;;;;;;237.38;45.72;;;8.00;99.90;;;;;;5014520;28;20055;-82
2022/12/25 06:41:56;;;;;;;222.48;47.38;;;8.00;99.90;;;;;;5014302;28;20099;-81
2022/12/25 06:44:22;;;;;;;240.70;47.90;;;8.10;99.90;;;;;;5015315;28;20046;-81
2022/12/25 06:46:47;;;;;;;221.68;47.58;;;8.00;99.90;;;;;;5014029;28;20403;-81
2022/12/25 06:49:13;;;;;;;235.68;46.88;;;8.00;99.90;;;;;;5014201;28;20050;-81
2022/12/25 06:51:39;;;;;;;240.10;50.05;;;8.00;99.90;;;;;;5013998;28;20042;-81
2022/12/25 06:54:04;;;;;;;225.50;46.38;;;8.00;99.90;;;;;;5014268;28;20046;-82
2022/12/25 06:56:32;;;;;;;217.68;43.33;;;8.00;99.90;;;;;;5014236;28;20107;-81
2022/12/25 06:59:00;;;;;;;217.23;44.53;;;8.00;99.90;;;;;;5014192;28;20072;-81
2022/12/25 07:01:29;;;;;;;232.55;45.65;;;8.10;99.90;;;;;;5014023;28;20116;-81
2022/12/25 07:04:04;;;;;;;200.32;43.67;;;8.00;99.90;;;;;;5013738;28;20125;-82
2022/12/25 07:06:30;;;;;;;206.32;44.40;;;8.10;99.90;;;;;;5013999;28;20087;-83
2022/12/25 07:08:55;;;;;;;222.45;42.88;;;8.00;99.90;;;;;;5013986;28;20049;-83
2022/12/25 07:11:22;;;;;;;207.10;45.10;;;8.00;99.90;;;;;;5013672;28;20492;-83
2022/12/25 07:13:47;;;;;;;236.32;46.53;;;8.00;99.90;;;;;;5013453;28;20085;-83
2022/12/25 07:16:14;;;;;;;230.10;46.85;;;8.00;99.90;;;;;;5013476;28;20081;-83
2022/12/25 07:18:40;;;;;;;220.23;46.22;;;8.00;99.90;;;;;;5013542;28;20049;-83
2022/12/25 07:21:08;;;;;;;211.48;45.22;;;8.00;99.90;;;;;;5013438;28;20048;-83
2022/12/25 07:23:33;;;;;;;232.02;49.75;;;8.00;99.90;;;;;;5013482;28;20052;-83
2022/12/25 07:26:00;;;;;;;221.45;46.60;;;8.00;99.90;;;;;;5013447;28;20042;-83
2022/12/25 07:28:26;;;;;;;233.63;49.10;;;8.00;99.90;;;;;;5013267;28;20046;-83
2022/12/25 07:30:52;;;;;;;214.52;42.33;;;8.00;99.90;;;;;;5013297;28;20042;-82
2022/12/25 07:33:17;;;;;;;226.73;46.25;;;8.00;99.90;;;;;;5013320;28;20041;-83
2022/12/25 07:35:43;;;;;;;231.20;47.88;;;8.00;99.90;;;;;;5013326;28;20108;-82
2022/12/25 07:38:09;;;;;;;207.10;44.53;;;8.00;99.90;;;;;;5012966;28;20429;-82
2022/12/25 07:40:35;;;;;;;224.65;45.95;;;8.00;99.90;;;;;;5013165;28;20045;-82
2022/12/25 07:43:00;;;;;;;228.40;46.25;;;8.10;99.90;;;;;;5013113;28;20504;-82
2022/12/25 07:45:26;;;;;;;227.20;45.97;;;8.00;99.90;;;;;;5012985;28;20042;-82
2022/12/25 07:47:52;;;;;;;230.35;47.05;;;8.10;99.90;;;;;;5013288;28;20053;-82
2022/12/25 07:50:18;;;;;;;194.73;43.97;;;8.00;99.90;;;;;;5013372;28;20046;-82
2022/12/25 07:52:45;;;;;;;219.25;42.17;;;8.00;99.90;;;;;;5013034;28;20088;-82
2022/12/25 07:55:11;;;;;;;217.43;45.33;;;8.10;99.90;;;;;;5013004;28;20112;-82
2022/12/25 07:57:37;;;;;;;203.23;46.83;;;8.10;99.90;;;;;;5012960;28;20048;-82
2022/12/25 08:00:05;;;;;;;205.07;41.80;;;8.00;99.90;;;;;;5012937;28;20140;-82
2022/12/25 08:02:30;;;;;;;208.57;43.78;;;8.10;99.90;;;;;;5012749;28;20383;-82
2022/12/25 08:04:56;;;;;;;202.50;43.80;;;8.10;99.90;;;;;;5012078;28;20140;-82
2022/12/25 08:07:22;;;;;;;206.82;41.78;;;8.10;99.90;;;;;;5012834;28;20073;-82
2022/12/25 08:09:48;;;;;;;188.50;42.63;;;8.10;99.90;;;;;;5012735;28;20529;-83
2022/12/25 08:12:15;;;;;;;218.18;43.55;;;8.10;99.90;;;;;;5013083;28;20049;-82
2022/12/25 08:14:40;;;;;;;193.65;42.30;;;8.10;99.90;;;;;;5012752;28;20049;-82
2022/12/25 08:17:06;;;;;;;217.32;42.20;;;8.10;99.90;;;;;;5012454;28;20042;-82
2022/12/25 08:19:32;;;;;;;201.30;43.75;;;8.10;99.90;;;;;;5012639;28;20050;-81
2022/12/25 08:21:58;;;;;;;198.60;42.40;;;8.10;99.90;;;;;;5011193;28;20049;-81
2022/12/25 08:24:23;;;;;;;183.77;41.22;;;8.10;99.90;;;;;;5003042;28;20056;-81
2022/12/25 08:26:49;;;;;;;192.73;40.10;;;8.10;99.90;;;;;;4992651;28;20046;-81
2022/12/25 08:29:15;;;;;;;198.52;41.88;;;8.20;99.90;;;;;;4992763;28;20065;-80
2022/12/25 08:31:42;;;;;;;182.18;38.22;;;8.20;99.90;;;;;;4992752;28;20046;-81
2022/12/25 08:34:09;;;;;;;173.25;40.30;;;8.20;99.90;;;;;;4992293;28;20060;-81
2022/12/25 08:36:35;;;;;;;197.45;41.85;;;8.20;99.90;;;;;;4992513;28;20089;-81
2022/12/25 08:39:01;;;;;;;182.68;41.10;;;8.20;99.90;;;;;;4993834;28;20043;-81
2022/12/25 08:41:27;;;;;;;186.02;40.33;;;8.20;99.90;;;;;;4992429;28;20054;-81
2022/12/25 08:43:52;;;;;;;180.95;42.20;;;8.20;99.90;;;;;;4992279;28;20052;-80
2022/12/25 08:46:18;;;;;;;188.07;46.08;;;8.20;99.90;;;;;;4992355;28;20133;-81
2022/12/25 08:48:45;;;;;;;193.27;46.65;;;8.30;99.90;;;;;;4992627;28;20062;-81
2022/12/25 08:51:14;;;;;;;185.63;46.13;;;8.30;99.90;;;;;;4996268;28;20466;-81
2022/12/25 08:53:44;;;;;;;172.77;42.85;;;8.20;99.90;;;;;;4996193;28;20450;-81
2022/12/25 08:56:11;;;;;;;175.00;47.35;;;8.30;99.90;;;;;;4996207;28;20050;-81
2022/12/25 08:58:36;;;;;;;152.93;40.42;;;8.30;99.90;;;;;;4996493;28;20054;-81
2022/12/25 09:01:03;;;;;;;155.80;36.88;;;8.30;99.90;;;;;;4996063;28;20046;-80
2022/12/25 09:03:31;;;;;;;146.70;38.55;;;8.20;99.90;;;;;;4995930;28;20057;-81
2022/12/25 09:06:12;;;;;;;138.50;36.30;;;8.20;99.90;;;;;;4995897;28;20129;-80
2022/12/25 09:08:38;;;;;;;161.00;42.03;;;8.10;99.90;;;;;;4996319;28;20057;-82
2022/12/25 09:11:06;;;;;;;165.95;45.72;;;8.20;99.90;;;;;;4996185;28;20054;-82
2022/12/25 09:13:31;;;;;;;143.25;36.40;;;8.20;99.90;;;;;;4995838;28;20125;-81
2022/12/25 09:15:57;;;;;;;170.10;38.30;;;8.20;99.90;;;;;;4996099;28;20065;-78
2022/12/25 09:18:23;;;;;;;167.07;42.15;;;8.10;99.90;;;;;;4996042;28;20371;-79
2022/12/25 09:21:04;;;;;;;139.07;39.38;;;8.20;99.90;;;;;;4997272;28;20493;-84
2022/12/25 09:23:30;;;;;;;125.93;33.20;;;8.10;99.90;;;;;;4995463;28;20049;-85
2022/12/25 09:26:01;;;;;;;137.65;33.03;;;8.20;99.90;;;;;;5002817;28;20034;-84
2022/12/25 09:28:26;;;;;;;119.03;30.23;;;8.20;99.90;;;;;;5014676;28;20136;-83
2022/12/25 09:30:52;;;;;;;111.35;30.60;;;8.20;99.90;;;;;;5016558;28;20151;-80
2022/12/25 09:33:18;;;;;;;124.85;31.52;;;8.20;99.90;;;;;;5014975;28;20136;-84
2022/12/25 09:35:52;;;;;;;123.78;32.20;;;8.20;99.90;;;;;;5015213;28;20054;-84
2022/12/25 09:38:18;;;;;;;103.25;30.25;;;8.20;99.90;;;;;;5016448;28;20057;-85
2022/12/25 09:40:43;;;;;;;111.88;29.35;;;8.20;99.90;;;;;;5016235;28;20054;-84
2022/12/25 09:43:14;;;;;;;110.70;28.80;;;8.30;99.90;;;;;;5016226;28;20057;-86
2022/12/25 09:45:41;;;;;;;108.07;29.48;;;8.20;99.90;;;;;;5015083;28;20544;-85
2022/12/25 09:48:13;;;;;;;98.90;28.17;;;8.20;99.90;;;;;;5014968;28;20057;-85
2022/12/25 09:50:54;;;;;;;104.30;27.63;;;8.20;99.90;;;;;;5014843;28;20081;-85
2022/12/25 09:53:34;;;;;;;98.95;28.35;;;8.30;99.90;;;;;;5015122;28;20054;-85
2022/12/25 09:56:03;;;;;;;98.80;27.33;;;8.20;99.90;;;;;;5014921;28;20068;-85
2022/12/25 09:58:31;;;;;;;100.07;26.98;;;8.30;99.90;;;;;;5014976;28;20058;-84
2022/12/25 10:01:20;;;;;;;104.10;28.25;;;8.30;99.90;;;;;;5014343;28;20056;-84
2022/12/25 10:03:58;;;;;;;100.95;26.75;;;8.30;99.90;;;;;;5009538;28;20456;-85
2022/12/25 10:06:26;;;;;;;96.80;26.80;;;8.20;99.90;;;;;;5014524;28;20049;-83
2022/12/25 10:09:03;;;;;;;98.90;26.30;;;8.20;99.90;;;;;;5014561;28;20046;-85
2022/12/25 10:11:51;;;;;;;96.95;25.73;;;8.30;99.90;;;;;;5014696;28;20390;-85
2022/12/25 10:14:17;;;;;;;95.97;26.17;;;8.30;99.90;;;;;;5014741;28;20041;-85
2022/12/25 10:16:42;;;;;;;93.18;25.55;;;8.20;99.90;;;;;;5014471;28;20619;-85
2022/12/25 10:19:33;;;;;;;89.00;24.95;;;8.30;99.90;;;;;;5014939;28;20057;-85
2022/12/25 10:22:07;;;;;;;84.40;24.45;;;8.30;99.90;;;;;;5013575;28;20104;-85
2022/12/25 10:24:39;;;;;;;91.10;23.83;;;8.30;99.90;;;;;;5013700;28;20143;-84
2022/12/25 10:27:18;;;;;;;84.93;26.63;;;8.30;99.90;;;;;;5013615;28;20402;-85
2022/12/25 10:29:48;;;;;;;106.30;30.80;;;8.30;99.90;;;;;;5010859;28;20058;-84
2022/12/25 10:32:14;;;;;;;93.85;27.27;;;8.30;99.90;;;;;;4994753;28;20121;-84
2022/12/25 10:34:41;;;;;;;95.65;30.08;;;8.40;99.90;;;;;;4994293;28;20213;-85
2022/12/25 10:37:10;;;;;;;99.95;27.70;;;8.40;99.90;;;;;;5002918;28;20127;-84
2022/12/25 10:39:36;;;;;;;113.03;30.83;;;8.30;99.90;;;;;;5013942;28;20058;-83
2022/12/25 10:42:19;;;;;;;86.55;26.02;;;8.30;99.90;;;;;;5013809;28;20049;-85
2022/12/25 10:44:56;;;;;;;80.22;23.70;;;8.30;99.90;;;;;;5014090;28;20088;-86
2022/12/25 10:47:24;;;;;;;81.93;26.25;;;8.30;99.90;;;;;;5014047;28;20046;-85
2022/12/25 10:49:50;;;;;;;90.97;26.83;;;8.30;99.90;;;;;;5014055;28;20489;-85
2022/12/25 10:52:22;;;;;;;71.28;23.83;;;8.30;99.90;;;;;;5015087;28;20042;-85
2022/12/25 10:54:47;;;;;;;75.63;21.80;;;8.40;99.90;;;;;;5015165;28;20474;-85
2022/12/25 10:57:15;;;;;;;75.53;22.88;;;8.30;99.90;;;;;;5015142;28;20052;-85
2022/12/25 10:59:43;;;;;;;76.80;23.73;;;8.40;99.90;;;;;;5013460;28;20128;-85
2022/12/25 11:02:18;;;;;;;73.28;20.83;;;8.40;99.90;;;;;;5013779;28;20060;-84
2022/12/25 11:04:44;;;;;;;78.30;22.75;;;8.40;99.90;;;;;;5013354;28;20049;-85
2022/12/25 11:07:19;;;;;;;70.80;21.15;;;8.40;99.90;;;;;;5013392;28;20489;-84
2022/12/25 11:10:03;;;;;;;68.93;20.25;;;8.30;99.90;;;;;;5014781;28;20046;-85
2022/12/25 11:12:40;;;;;;;71.65;20.33;;;8.40;99.90;;;;;;5012784;28;20165;-85
2022/12/25 11:15:35;;;;;;;73.35;21.33;;;8.50;99.90;;;;;;5013777;28;20116;-84
2022/12/25 11:18:03;;;;;;;75.15;21.10;;;8.40;99.90;;;;;;4995799;28;20080;-85
2022/12/25 11:20:29;;;;;;;78.35;20.73;;;8.50;99.90;;;;;;5013442;28;20080;-84
2022/12/25 11:22:55;;;;;;;70.15;20.83;;;8.40;99.90;;;;;;5012913;28;20509;-85
2022/12/25 11:25:26;;;;;;;67.82;19.05;;;8.40;99.90;;;;;;5013104;28;20058;-85
2022/12/25 11:28:00;;;;;;;65.28;19.48;;;8.40;99.90;;;;;;5012725;28;20113;-84
2022/12/25 11:30:29;;;;;;;57.75;17.95;;;8.40;99.90;;;;;;5012504;28;20085;-84
2022/12/25 11:32:58;;;;;;;59.03;16.95;;;8.50;99.90;;;;;;5010025;28;20122;-82
2022/12/25 11:35:29;;;;;;;66.05;19.10;;;8.40;99.90;;;;;;5013768;28;20053;-84
2022/12/25 11:37:55;;;;;;;66.72;20.05;;;8.50;99.90;;;;;;5012572;28;20049;-84
2022/12/25 11:40:26;;;;;;;67.32;19.40;;;8.50;99.90;;;;;;5012579;28;20041;-85
2022/12/25 11:43:14;;;;;;;52.90;16.35;;;8.50;99.90;;;;;;5013703;28;20050;-85
2022/12/25 11:45:59;;;;;;;73.88;21.25;;;8.50;99.90;;;;;;5012509;28;20096;-84
2022/12/25 11:48:35;;;;;;;67.05;17.60;;;8.60;99.90;;;;;;5012228;28;20054;-85
2022/12/25 11:51:04;;;;;;;75.47;18.63;;;8.60;99.90;;;;;;5012850;28;20137;-85
2022/12/25 11:53:37;;;;;;;64.43;18.63;;;8.60;99.90;;;;;;5012620;28;20046;-85
2022/12/25 11:56:09;;;;;;;51.08;15.52;;;8.60;99.90;;;;;;5012737;28;20045;-84
2022/12/25 11:58:37;;;;;;;54.03;15.87;;;8.50;99.90;;;;;;5012961;28;20099;-84
2022/12/25 12:01:23;;;;;;;56.88;16.17;;;8.60;99.90;;;;;;5012417;28;20042;-84
2022/12/25 12:03:49;;;;;;;52.72;16.20;;;8.60;99.90;;;;;;5008571;28;20057;-84
2022/12/25 12:06:39;;;;;;;53.92;17.17;;;8.60;99.90;;;;;;5012338;28;20041;-85
2022/12/25 12:09:32;;;;;;;50.58;16.20;;;8.50;99.90;;;;;;5012474;28;20046;-85
2022/12/25 12:12:15;;;;;;;44.85;14.48;;;8.60;99.90;;;;;;5011907;28;20042;-85
2022/12/25 12:14:41;;;;;;;49.03;13.90;;;8.70;99.90;;;;;;4992736;28;20088;-85
2022/12/25 12:17:11;;;;;;;44.17;15.05;;;8.70;99.90;;;;;;5008793;28;20049;-84
2022/12/25 12:19:37;;;;;;;44.03;13.70;;;8.60;99.90;;;;;;4990754;28;20056;-84
2022/12/25 12:22:13;;;;;;;47.45;14.45;;;8.70;99.90;;;;;;4991734;28;20045;-87
2022/12/25 12:24:45;;;;;;;46.45;16.20;;;8.70;99.90;;;;;;4992375;28;20061;-84
2022/12/25 12:27:22;;;;;;;48.45;14.88;;;8.60;99.90;;;;;;4992775;28;20054;-84
2022/12/25 12:29:52;;;;;;;42.88;15.60;;;8.60;99.90;;;;;;5009099;28;20521;-84
2022/12/25 12:32:27;;;;;;;41.22;13.50;;;8.80;99.90;;;;;;4992457;28;20046;-82
2022/12/25 12:34:54;;;;;;;41.10;13.85;;;8.80;99.90;;;;;;4992520;28;20559;-84
2022/12/25 12:37:30;;;;;;;39.55;12.68;;;8.70;99.90;;;;;;4992660;28;20042;-84
2022/12/25 12:40:00;;;;;;;44.20;13.35;;;8.70;99.90;;;;;;4992968;28;20093;-86
2022/12/25 12:42:30;;;;;;;46.63;13.57;;;8.70;99.90;;;;;;4991930;28;20051;-83
2022/12/25 12:45:05;;;;;;;36.03;12.48;;;8.70;99.90;;;;;;5009072;28;20062;-83
2022/12/25 12:47:39;;;;;;;39.55;13.20;;;8.70;99.90;;;;;;5008994;28;20088;-83
2022/12/25 12:50:06;;;;;;;45.13;14.32;;;8.70;99.90;;;;;;4992912;28;20043;-83
2022/12/25 12:52:36;;;;;;;46.45;13.80;;;8.80;99.90;;;;;;4992885;28;20478;-83
2022/12/25 12:55:07;;;;;;;41.97;13.88;;;8.70;99.90;;;;;;4992483;28;20046;-83
2022/12/25 12:57:38;;;;;;;45.78;14.25;;;8.80;99.90;;;;;;5008856;28;20165;-83
2022/12/25 13:00:28;;;;;;;42.78;14.98;;;8.80;99.90;;;;;;5008826;28;20069;-85
2022/12/25 13:03:27;;;;;;;54.28;20.40;;;8.80;99.90;;;;;;4992502;28;20049;-85
2022/12/25 13:06:07;;;;;;;86.32;32.05;;;8.70;99.90;;;;;;4992547;28;20082;-85
2022/12/25 13:08:41;;;;;;;58.58;21.50;;;8.70;99.90;;;;;;5009025;28;20062;-83
2022/12/25 13:11:23;;;;;;;55.03;18.98;;;8.70;99.90;;;;;;4993944;28;20045;-83
2022/12/25 13:13:51;;;;;;;39.92;15.00;;;8.70;99.90;;;;;;5008686;28;20434;-83
2022/12/25 13:16:34;;;;;;;46.45;16.60;;;8.80;99.90;;;;;;4992652;28;20046;-84
2022/12/25 13:19:05;;;;;;;49.55;18.55;;;8.80;99.90;;;;;;4992641;28;20055;-85
2022/12/25 13:21:31;;;;;;;49.30;19.65;;;8.80;99.90;;;;;;5009008;28;20069;-86
2022/12/25 13:24:09;;;;;;;49.20;18.40;;;8.80;99.90;;;;;;4992394;28;20043;-82
2022/12/25 13:26:35;;;;;;;46.45;17.73;;;8.80;99.90;;;;;;4992612;28;20415;-84
2022/12/25 13:29:01;;;;;;;50.13;16.63;;;8.80;99.90;;;;;;4992355;28;20137;-84
2022/12/25 13:31:29;;;;;;;42.00;15.82;;;8.80;99.90;;;;;;4992611;28;20042;-87
2022/12/25 13:34:27;;;;;;;42.17;18.08;;;8.70;99.90;;;;;;4991645;28;20054;-87
2022/12/25 13:37:12;;;;;;;49.85;18.15;;;8.80;99.90;;;;;;4995135;28;20047;-87
2022/12/25 13:39:54;;;;;;;48.67;18.55;;;8.70;99.90;;;;;;4995969;28;20046;-83
2022/12/25 13:42:24;;;;;;;51.75;18.65;;;8.80;99.90;;;;;;4995870;28;20042;-84
2022/12/25 13:45:04;;;;;;;49.13;19.30;;;8.70;99.90;;;;;;4995593;28;20050;-84
2022/12/25 13:47:39;;;;;;;91.40;22.13;;;8.80;99.90;;;;;;5011951;28;20411;-81
2022/12/25 13:50:20;;;;;;;50.45;18.45;;;8.80;99.90;;;;;;4995493;28;20097;-84
2022/12/25 13:52:46;;;;;;;56.03;20.85;;;8.70;99.90;;;;;;4995504;28;20054;-81
2022/12/25 13:55:26;;;;;;;56.05;19.63;;;8.60;99.90;;;;;;5011711;28;20053;-83
2022/12/25 13:58:04;;;;;;;53.15;17.98;;;8.70;99.90;;;;;;4995374;28;20046;-82
2022/12/25 14:00:44;;;;;;;43.95;16.83;;;8.70;99.90;;;;;;4995604;28;20046;-82
2022/12/25 14:03:25;;;;;;;45.78;17.67;;;8.70;99.90;;;;;;4995342;28;20046;-84
2022/12/25 14:05:59;;;;;;;58.83;23.92;;;8.60;99.90;;;;;;5011548;28;20518;-82
2022/12/25 14:08:30;;;;;;;57.10;20.13;;;8.60;99.90;;;;;;5011745;28;20050;-83
2022/12/25 14:10:57;;;;;;;43.58;16.95;;;8.70;99.90;;;;;;4995179;28;20054;-82
2022/12/25 14:13:27;;;;;;;54.67;18.73;;;8.70;99.90;;;;;;4995025;28;20045;-83
2022/12/25 14:15:54;;;;;;;53.60;19.42;;;8.70;99.90;;;;;;5011611;28;20391;-83
2022/12/25 14:18:22;;;;;;;58.70;20.35;;;8.60;99.90;;;;;;4995145;28;20069;-83
2022/12/25 14:21:10;;;;;;;52.75;18.38;;;8.60;99.90;;;;;;5006268;28;20405;-83
2022/12/25 14:23:43;;;;;;;49.38;17.10;;;8.60;99.90;;;;;;5014313;28;20564;-82
2022/12/25 14:26:32;;;;;;;50.53;17.50;;;8.70;99.90;;;;;;5014425;28;20034;-82
2022/12/25 14:29:03;;;;;;;52.13;18.50;;;8.70;99.90;;;;;;5014302;28;20038;-82
2022/12/25 14:31:30;;;;;;;45.72;18.05;;;8.60;99.90;;;;;;5014558;28;20132;-84
2022/12/25 14:33:58;;;;;;;54.97;19.15;;;8.60;99.90;;;;;;5014368;28;20112;-86